createdAt,value
2017-07-07T00:00:02.762Z,85.43
2017-07-07T00:05:02.811Z,85.19
2017-07-07T00:10:02.471Z,85.73
2017-07-07T00:15:02.032Z,85.08
2017-07-07T00:20:02.998Z,85.53
2017-07-07T00:25:02.561Z,86.06
2017-07-07T00:30:02.118Z,85.88
2017-07-07T00:35:02.773Z,86.56
2017-07-07T00:40:02.375Z,86.91
2017-07-07T00:45:02.946Z,85.7
2017-07-07T00:50:02.707Z,86.25
2017-07-07T00:55:02.267Z,86.77
2017-07-07T01:00:02.827Z,85.75
2017-07-07T01:05:02.382Z,85.42
2017-07-07T01:10:03.028Z,85.23
2017-07-07T01:15:02.604Z,84.63
2017-07-07T01:20:02.463Z,84.41
2017-07-07T01:25:03.012Z,83.73
2017-07-07T01:30:02.654Z,84.39
2017-07-07T01:35:02.346Z,84.14
2017-07-07T01:40:02.955Z,84.46
2017-07-07T01:45:02.533Z,84.24
2017-07-07T01:50:02.024Z,83.98
2017-07-07T01:55:02.675Z,83.22
2017-07-07T02:00:02.214Z,82.98
2017-07-07T02:05:02.309Z,83.19
2017-07-07T02:10:02.886Z,82.86
2017-07-07T02:15:02.436Z,83.83
2017-07-07T02:20:02.258Z,84.15
2017-07-07T02:25:02.892Z,84.79
2017-07-07T02:30:02.528Z,85.52
2017-07-07T02:35:02.174Z,87.27
2017-07-07T02:40:02.758Z,87.04
2017-07-07T02:45:02.379Z,86.21
2017-07-07T02:50:02.927Z,86.85
2017-07-07T02:55:02.476Z,86.88
2017-07-07T03:00:02.102Z,87.06
2017-07-07T03:05:02.794Z,87.86
2017-07-07T03:10:02.359Z,87.96
2017-07-07T03:15:02.919Z,87.91
2017-07-07T03:20:02.113Z,88.07
2017-07-07T03:25:02.759Z,88.46
2017-07-07T03:30:02.367Z,87.75
2017-07-07T03:35:02.934Z,88.41
2017-07-07T03:40:02.521Z,88.64
2017-07-07T03:45:02.137Z,88.71
2017-07-07T03:50:02.867Z,88.75
2017-07-07T03:55:02.412Z,89.28
2017-07-07T04:00:02.958Z,89.42
2017-07-07T04:05:02.519Z,89.29
2017-07-07T04:10:02.089Z,88.34
2017-07-07T04:15:02.760Z,89.22
2017-07-07T04:20:02.580Z,88.79
2017-07-07T04:25:02.230Z,88.52
2017-07-07T04:30:02.739Z,88.74
2017-07-07T04:35:02.282Z,89.47
2017-07-07T04:40:02.939Z,89.01
2017-07-07T04:45:02.475Z,88.85
2017-07-07T04:50:02.703Z,89.39
2017-07-07T04:55:02.284Z,89.46
2017-07-07T05:00:02.973Z,88.99
2017-07-07T05:05:02.507Z,89.67
2017-07-07T05:10:02.181Z,89.57
2017-07-07T05:15:02.387Z,90.87
2017-07-07T05:20:02.228Z,90.27
2017-07-07T05:25:02.455Z,90.33
2017-07-07T05:30:02.686Z,89.57
2017-07-07T05:35:02.268Z,88.35
2017-07-07T05:40:02.862Z,87.67
2017-07-07T05:45:02.070Z,88.2
2017-07-07T05:50:02.180Z,89.02
2017-07-07T05:55:02.434Z,88.46
2017-07-07T06:00:02.594Z,87.58
2017-07-07T06:05:01.993Z,87.56
2017-07-07T06:10:02.648Z,85.53
2017-07-07T06:15:02.221Z,85.48
2017-07-07T06:20:02.041Z,84.64
2017-07-07T06:25:02.314Z,85.17
2017-07-07T06:30:02.908Z,84.79
2017-07-07T06:35:02.486Z,84.78
2017-07-07T06:40:02.690Z,85.51
2017-07-07T06:45:02.302Z,85.42
2017-07-07T06:50:02.082Z,84.79
2017-07-07T06:55:02.273Z,84.82
2017-07-07T07:00:02.440Z,82.91
2017-07-07T07:05:02.822Z,80.8
2017-07-07T07:10:02.492Z,77.25
2017-07-07T07:15:02.741Z,74.08
2017-07-07T07:20:02.282Z,69.07
2017-07-07T07:25:02.482Z,67.67
2017-07-07T07:30:02.678Z,66.21
2017-07-07T07:35:02.907Z,63.19
2017-07-07T07:40:02.105Z,63.23
2017-07-07T07:45:02.371Z,61.87
2017-07-07T07:50:02.851Z,56.37
2017-07-07T07:55:02.016Z,53.38
2017-07-07T08:00:02.270Z,56.33
2017-07-07T08:05:02.656Z,54.84
2017-07-07T08:10:02.904Z,53.47
2017-07-07T08:15:02.074Z,53.13
2017-07-07T08:20:02.969Z,52.6
2017-07-07T08:25:02.570Z,52.28
2017-07-07T08:30:02.808Z,50.81
2017-07-07T08:35:03.021Z,50.4
2017-07-07T08:40:02.242Z,49.64
2017-07-07T08:45:02.788Z,51.37
2017-07-07T08:50:02.902Z,53.89
2017-07-07T08:55:02.164Z,53.8
2017-07-07T09:00:02.405Z,51.86
2017-07-07T09:05:02.086Z,51.49
2017-07-07T09:10:02.739Z,50.55
2017-07-07T09:15:02.982Z,50.21
2017-07-07T09:20:02.452Z,50.26
2017-07-07T09:25:02.745Z,50.1
2017-07-07T09:30:02.944Z,49.86
2017-07-07T09:35:02.126Z,49.16
2017-07-07T09:40:02.792Z,49.55
2017-07-07T09:45:02.291Z,49.59
2017-07-07T09:50:02.564Z,47.92
2017-07-07T09:55:02.741Z,48.98
2017-07-07T10:00:03.011Z,49.91
2017-07-07T10:05:02.197Z,49.55
2017-07-07T10:10:02.771Z,48.27
2017-07-07T10:15:03.056Z,48.79
2017-07-07T10:20:02.916Z,48.33
2017-07-07T10:25:02.539Z,48.96
2017-07-07T10:30:02.117Z,52.67
2017-07-07T10:35:02.396Z,49.55
2017-07-07T10:40:02.984Z,47.16
2017-07-07T10:45:02.575Z,49.85
2017-07-07T10:50:02.806Z,52.67
2017-07-07T10:55:03.028Z,53.87
2017-07-07T11:00:02.606Z,51.84
2017-07-07T11:05:02.778Z,50.38
2017-07-07T11:10:03.008Z,50.17
2017-07-07T11:15:02.213Z,48.21
2017-07-07T11:20:02.464Z,49.18
2017-07-07T11:25:03.028Z,48.87
2017-07-07T11:30:02.549Z,49.1
2017-07-07T11:35:02.326Z,49.77
2017-07-07T11:40:02.592Z,48.69
2017-07-07T11:45:02.830Z,49.92
2017-07-07T11:50:02.270Z,50.31
2017-07-07T11:55:02.822Z,49.63
2017-07-07T12:00:01.998Z,49.5
2017-07-07T12:05:02.999Z,48.73
2017-07-07T12:10:02.599Z,49.54
2017-07-07T12:15:02.825Z,47.87
2017-07-07T12:20:02.578Z,48.08
2017-07-07T12:25:02.788Z,49.61
2017-07-07T12:30:02.329Z,46.97
2017-07-07T12:35:02.943Z,48.85
2017-07-07T12:40:02.556Z,49.57
2017-07-07T12:45:02.067Z,50.24
2017-07-07T12:50:03.054Z,49.17
2017-07-07T12:55:02.234Z,49.9
2017-07-07T13:00:02.810Z,49.29
2017-07-07T13:05:02.407Z,52.28
2017-07-07T13:10:02.999Z,51.58
2017-07-07T13:15:02.228Z,49.63
2017-07-07T13:20:02.061Z,49.79
2017-07-07T13:25:02.296Z,49.42
2017-07-07T13:30:02.985Z,48.77
2017-07-07T13:35:02.078Z,48.13
2017-07-07T13:40:02.307Z,49.08
2017-07-07T13:45:02.891Z,49.52
2017-07-07T13:50:02.493Z,49.18
2017-07-07T13:55:02.172Z,49.27
2017-07-07T14:00:02.388Z,49.93
2017-07-07T14:05:02.057Z,49.55
2017-07-07T14:10:02.730Z,49.37
2017-07-07T14:15:02.307Z,51.52
2017-07-07T14:20:02.758Z,50.33
2017-07-07T14:25:02.329Z,50.25
2017-07-07T14:30:02.904Z,50.64
2017-07-07T14:35:02.462Z,50.88
2017-07-07T14:40:02.685Z,50.9
2017-07-07T14:45:02.234Z,51.78
2017-07-07T14:50:02.475Z,52.25
2017-07-07T14:55:02.063Z,53.97
2017-07-07T15:00:02.701Z,52.51
2017-07-07T15:05:02.256Z,53.22
2017-07-07T15:10:02.816Z,53.46
2017-07-07T15:15:02.373Z,53.72
2017-07-07T15:20:02.395Z,52.48
2017-07-07T15:25:02.627Z,52.28
2017-07-07T15:30:02.186Z,52.51
2017-07-07T15:35:02.402Z,52.64
2017-07-07T15:40:02.670Z,53.21
2017-07-07T15:45:02.879Z,53.96
2017-07-07T15:50:02.614Z,54.23
2017-07-07T15:55:02.204Z,55.55
2017-07-07T16:00:02.419Z,54.77
2017-07-07T16:05:02.637Z,54.8
2017-07-07T16:10:02.829Z,55.44
2017-07-07T16:15:02.430Z,55.15
2017-07-07T16:20:02.978Z,55.56
2017-07-07T16:25:02.530Z,55.83
2017-07-07T16:30:02.702Z,55.77
2017-07-07T16:35:02.623Z,56.26
2017-07-07T16:40:02.857Z,56.11
2017-07-07T16:45:02.430Z,56.4
2017-07-07T16:50:02.826Z,56.87
2017-07-07T16:55:02.366Z,57.85
2017-07-07T17:00:02.607Z,58.65
2017-07-07T17:05:02.946Z,59.5
2017-07-07T17:10:02.525Z,59.67
2017-07-07T17:15:02.095Z,59.13
2017-07-07T17:20:03.002Z,58.77
2017-07-07T17:25:02.550Z,59.17
2017-07-07T17:30:02.204Z,58.72
2017-07-07T17:35:02.886Z,58.63
2017-07-07T17:40:02.091Z,58.91
2017-07-07T17:45:02.762Z,58.49
2017-07-07T17:50:02.309Z,58.56
2017-07-07T17:55:02.503Z,59.4
2017-07-07T18:00:02.694Z,59.48
2017-07-07T18:05:02.530Z,60.23
2017-07-07T18:10:02.749Z,60.58
2017-07-07T18:15:02.917Z,61.62
2017-07-07T18:20:02.772Z,61.94
2017-07-07T18:25:02.422Z,62.52
2017-07-07T18:30:02.196Z,62.71
2017-07-07T18:40:02.953Z,64.48
2017-07-07T18:45:02.804Z,67.18
2017-07-07T18:50:02.718Z,69.9
2017-07-07T18:55:02.330Z,72.63
2017-07-07T19:00:02.871Z,77.91
2017-07-07T19:05:02.041Z,82.7
2017-07-07T19:10:02.688Z,89.37
2017-07-07T19:15:02.290Z,91.65
2017-07-07T19:20:02.224Z,89.78
2017-07-07T19:25:02.781Z,91.51
2017-07-07T19:30:02.334Z,97.09
2017-07-07T19:35:02.930Z,95.79
2017-07-07T19:40:02.484Z,96.92
2017-07-07T19:45:02.066Z,97.02
2017-07-07T19:50:03.017Z,97.36
2017-07-07T19:55:02.630Z,95.69
2017-07-07T20:00:02.195Z,97.85
2017-07-07T20:05:02.379Z,99.26
2017-07-07T20:10:02.987Z,98.95
2017-07-07T20:15:02.581Z,98.14
2017-07-07T20:20:02.434Z,99.09
2017-07-07T20:25:02.999Z,99.44
2017-07-07T20:30:02.602Z,99.69
2017-07-07T20:35:02.141Z,99.5
2017-07-07T20:40:02.801Z,99.77
2017-07-07T20:45:02.489Z,99.34
2017-07-07T20:50:02.162Z,99.21
2017-07-07T20:55:02.892Z,99.31
2017-07-07T21:00:02.461Z,100.02
2017-07-07T21:05:02.316Z,100.46
2017-07-07T21:10:02.916Z,98.94
2017-07-07T21:15:02.511Z,101.04
2017-07-07T21:20:02.333Z,102.95
2017-07-07T21:25:02.120Z,102.21
2017-07-07T21:30:02.794Z,102.34
2017-07-07T21:35:02.412Z,101.65
2017-07-07T21:40:03.021Z,100.41
2017-07-07T21:45:02.591Z,101.81
2017-07-07T21:50:02.192Z,102.04
2017-07-07T21:55:02.751Z,101.05
2017-07-07T22:00:02.458Z,101.75
2017-07-07T22:05:02.994Z,101.87
2017-07-07T22:10:02.583Z,102.49
2017-07-07T22:15:02.121Z,101.3
2017-07-07T22:20:02.750Z,102.54
2017-07-07T22:25:02.294Z,101.2
2017-07-07T22:30:02.998Z,101.31
2017-07-07T22:35:02.619Z,101.37
2017-07-07T22:40:02.247Z,101.19
2017-07-07T22:45:02.874Z,101.83
2017-07-07T22:50:02.424Z,101.7
2017-07-07T22:55:02.078Z,101.9
2017-07-07T23:00:02.719Z,101.36
2017-07-07T23:05:02.862Z,101.69
2017-07-07T23:10:02.449Z,102.19
2017-07-07T23:15:02.124Z,102.76
2017-07-07T23:20:02.929Z,101.84
2017-07-07T23:40:02.115Z,100.36
2017-07-07T23:50:02.635Z,98.79
